createdAt,value
2023-02-03T00:00:09.201Z,101902.80
2023-02-03T00:02:59.633Z,101906.80
2023-02-03T00:05:28.404Z,101916.20
2023-02-03T00:07:56.565Z,101925.40
2023-02-03T00:10:24.763Z,101925.80
2023-02-03T00:12:52.900Z,101924.60
2023-02-03T00:15:23.167Z,101924.80
2023-02-03T00:17:51.083Z,101924.60
2023-02-03T00:20:19.444Z,101925.00
2023-02-03T00:22:47.264Z,101928.60
2023-02-03T00:25:15.200Z,101929.00
2023-02-03T00:27:42.986Z,101917.40
2023-02-03T00:30:12.425Z,101914.00
2023-02-03T00:32:40.296Z,101904.20
2023-02-03T00:35:08.610Z,101901.60
2023-02-03T00:37:37.734Z,101902.20
2023-02-03T00:40:06.308Z,101892.20
2023-02-03T00:42:37.284Z,101878.20
2023-02-03T00:45:06.587Z,101888.80
2023-02-03T00:47:34.445Z,101886.40
2023-02-03T00:50:02.577Z,101889.60
2023-02-03T00:52:30.734Z,101890.60
2023-02-03T00:54:58.619Z,101893.20
2023-02-03T00:57:26.500Z,101892.40
2023-02-03T00:59:55.958Z,101897.40
2023-02-03T01:02:24.525Z,101897.40
2023-02-03T01:04:53.565Z,101892.20
2023-02-03T01:07:22.034Z,101899.60
2023-02-03T01:09:50.470Z,101904.20
2023-02-03T01:12:18.342Z,101895.80
2023-02-03T01:14:46.193Z,101892.80
2023-02-03T01:17:14.016Z,101898.60
2023-02-03T01:19:41.787Z,101894.20
2023-02-03T01:22:09.637Z,101889.40
2023-02-03T01:24:37.521Z,101887.80
2023-02-03T01:27:06.328Z,101887.60
2023-02-03T01:29:35.457Z,101882.60
2023-02-03T01:32:03.881Z,101888.00
2023-02-03T01:34:31.834Z,101885.60
2023-02-03T01:37:00.199Z,101891.00
2023-02-03T01:39:29.605Z,101888.80
2023-02-03T01:41:57.884Z,101884.00
2023-02-03T01:44:52.313Z,101882.40
2023-02-03T01:47:38.735Z,101872.20
2023-02-03T01:50:18.669Z,101876.60
2023-02-03T01:52:57.827Z,101878.40
2023-02-03T01:55:35.006Z,101875.00
2023-02-03T01:58:11.442Z,101878.40
2023-02-03T02:00:40.103Z,101879.00
2023-02-03T02:03:09.956Z,101878.00
2023-02-03T02:05:49.048Z,101870.20
2023-02-03T02:08:19.953Z,101865.20
2023-02-03T02:10:48.788Z,101864.20
2023-02-03T02:13:19.786Z,101868.20
2023-02-03T02:16:20.935Z,101858.60
2023-02-03T02:19:22.594Z,101857.20
2023-02-03T02:23:20.451Z,101857.00
2023-02-03T02:26:41.027Z,101858.60
2023-02-03T02:29:36.906Z,101847.80
2023-02-03T02:32:37.267Z,101848.80
2023-02-03T02:35:43.414Z,101867.60
2023-02-03T02:38:33.006Z,101872.40
2023-02-03T02:41:43.866Z,101876.20
2023-02-03T02:44:21.616Z,101877.00
2023-02-03T02:46:56.938Z,101880.80
2023-02-03T02:49:37.994Z,101878.60
2023-02-03T02:52:09.879Z,101877.20
2023-02-03T02:54:44.715Z,101872.00
2023-02-03T02:57:15.967Z,101884.20
2023-02-03T02:59:47.379Z,101890.00
2023-02-03T03:02:15.463Z,101899.20
2023-02-03T03:04:48.319Z,101909.00
2023-02-03T03:07:26.551Z,101914.20
2023-02-03T03:10:07.112Z,101906.00
2023-02-03T03:12:40.321Z,101907.20
2023-02-03T03:15:18.422Z,101911.60
2023-02-03T03:17:58.157Z,101914.00
2023-02-03T03:20:28.411Z,101914.60
2023-02-03T03:23:06.442Z,101922.40
2023-02-03T03:25:49.186Z,101921.00
2023-02-03T03:28:26.764Z,101918.00
2023-02-03T03:30:55.099Z,101920.20
2023-02-03T03:33:24.080Z,101918.60
2023-02-03T03:36:12.386Z,101916.40
2023-02-03T03:38:56.842Z,101910.60
2023-02-03T03:41:39.828Z,101908.20
2023-02-03T03:44:14.554Z,101913.40
2023-02-03T03:46:59.432Z,101919.60
2023-02-03T03:49:29.715Z,101917.60
2023-02-03T03:52:07.748Z,101924.20
2023-02-03T03:54:39.034Z,101924.20
2023-02-03T03:57:18.096Z,101918.40
2023-02-03T03:59:49.346Z,101915.20
2023-02-03T04:02:21.232Z,101914.40
2023-02-03T04:04:51.048Z,101911.00
2023-02-03T04:07:20.373Z,101902.20
2023-02-03T04:09:48.378Z,101903.80
2023-02-03T04:12:34.144Z,101897.60
2023-02-03T04:15:02.007Z,101893.40
2023-02-03T04:17:29.965Z,101908.20
2023-02-03T04:19:57.779Z,101918.20
2023-02-03T04:22:25.600Z,101917.40
2023-02-03T04:24:53.391Z,101917.80
2023-02-03T04:27:21.308Z,101930.00
2023-02-03T04:29:50.739Z,101921.80
2023-02-03T04:32:18.804Z,101923.00
2023-02-03T04:34:46.957Z,101927.20
2023-02-03T04:37:14.821Z,101923.80
2023-02-03T04:39:42.703Z,101917.00
2023-02-03T04:42:10.591Z,101914.80
2023-02-03T04:44:38.335Z,101913.00
2023-02-03T04:47:06.113Z,101917.40
2023-02-03T04:49:33.926Z,101925.00
2023-02-03T04:52:01.899Z,101931.80
2023-02-03T04:54:29.749Z,101937.20
2023-02-03T04:56:57.687Z,101954.40
2023-02-03T04:59:25.634Z,101958.60
2023-02-03T05:01:53.789Z,101960.00
2023-02-03T05:04:22.113Z,101968.80
2023-02-03T05:06:50.233Z,101970.40
2023-02-03T05:09:18.561Z,101971.20
2023-02-03T05:11:46.635Z,101964.00
2023-02-03T05:14:14.433Z,101965.00
2023-02-03T05:16:42.278Z,101971.20
2023-02-03T05:19:10.381Z,101969.80
2023-02-03T05:21:38.231Z,101966.20
2023-02-03T05:24:07.903Z,101973.00
2023-02-03T05:26:36.139Z,101974.80
2023-02-03T05:29:04.207Z,101976.80
2023-02-03T05:31:33.622Z,101984.20
2023-02-03T05:34:01.710Z,101975.80
2023-02-03T05:36:29.573Z,101978.60
2023-02-03T05:38:57.353Z,101983.40
2023-02-03T05:41:43.937Z,101977.00
2023-02-03T05:44:12.255Z,101972.20
2023-02-03T05:46:40.102Z,101979.00
2023-02-03T05:49:08.221Z,101975.60
2023-02-03T05:51:36.288Z,101959.40
2023-02-03T05:54:04.272Z,101946.40
2023-02-03T05:56:32.090Z,101949.80
2023-02-03T05:58:59.949Z,101943.60
2023-02-03T06:01:27.797Z,101954.40
2023-02-03T06:03:55.925Z,101949.40
2023-02-03T06:06:23.956Z,101963.20
2023-02-03T06:08:56.245Z,101972.40
2023-02-03T06:11:24.599Z,101986.80
2023-02-03T06:13:52.763Z,101996.20
2023-02-03T06:16:21.580Z,102001.00
2023-02-03T06:18:49.465Z,101989.80
2023-02-03T06:21:17.305Z,101994.60
2023-02-03T06:23:45.097Z,101985.40
2023-02-03T06:26:13.376Z,101992.80
2023-02-03T06:28:41.278Z,101986.60
2023-02-03T06:31:09.282Z,101982.40
2023-02-03T06:33:37.208Z,101990.00
2023-02-03T06:36:06.052Z,101981.60
2023-02-03T06:38:33.913Z,101981.00
2023-02-03T06:41:01.816Z,101991.40
2023-02-03T06:43:29.757Z,101989.00
2023-02-03T06:45:58.384Z,101983.20
2023-02-03T06:48:26.528Z,101977.60
2023-02-03T06:50:54.333Z,101975.00
2023-02-03T06:53:22.150Z,101985.40
2023-02-03T06:55:49.987Z,101997.60
2023-02-03T06:58:17.818Z,101997.20
2023-02-03T07:00:45.669Z,101999.60
2023-02-03T07:03:13.442Z,102001.60
2023-02-03T07:05:41.439Z,102002.40
2023-02-03T07:08:09.269Z,102008.20
2023-02-03T07:10:37.092Z,102007.00
2023-02-03T07:13:07.041Z,102004.20
2023-02-03T07:15:35.702Z,102006.80
2023-02-03T07:18:04.190Z,102009.20
2023-02-03T07:20:33.063Z,102001.80
2023-02-03T07:23:01.060Z,102010.00
2023-02-03T07:25:29.219Z,102014.00
2023-02-03T07:27:57.388Z,102014.00
2023-02-03T07:30:25.453Z,102012.60
2023-02-03T07:32:53.908Z,102018.40
2023-02-03T07:35:21.969Z,102018.80
2023-02-03T07:37:50.002Z,102016.00
2023-02-03T07:40:20.092Z,102012.00
2023-02-03T07:42:50.117Z,102014.00
2023-02-03T07:45:18.769Z,102020.80
2023-02-03T07:47:46.638Z,102022.20
2023-02-03T07:50:14.480Z,102025.20
2023-02-03T07:52:42.305Z,102028.60
2023-02-03T07:55:10.289Z,102037.20
2023-02-03T07:57:43.410Z,102036.80
2023-02-03T08:00:14.702Z,102040.00
2023-02-03T08:02:43.939Z,102039.60
2023-02-03T08:05:13.053Z,102038.40
2023-02-03T08:07:41.786Z,102036.20
2023-02-03T08:10:13.691Z,102033.00
2023-02-03T08:12:46.579Z,102024.80
2023-02-03T08:15:15.233Z,102030.20
2023-02-03T08:17:44.545Z,102034.80
2023-02-03T08:20:12.840Z,102032.80
2023-02-03T08:22:40.872Z,102041.80
2023-02-03T08:25:10.162Z,102039.60
2023-02-03T08:27:38.971Z,102041.20
2023-02-03T08:30:12.277Z,102045.60
2023-02-03T08:32:40.625Z,102047.60
2023-02-03T08:35:08.802Z,102048.80
2023-02-03T08:37:36.768Z,102049.80
2023-02-03T08:40:07.184Z,102050.20
2023-02-03T08:42:35.115Z,102060.60
2023-02-03T08:45:05.275Z,102056.80
2023-02-03T08:47:33.596Z,102058.80
2023-02-03T08:50:01.399Z,102058.40
2023-02-03T08:52:29.324Z,102060.80
2023-02-03T08:54:57.122Z,102058.60
2023-02-03T08:57:25.056Z,102061.80
2023-02-03T08:59:53.228Z,102075.20
2023-02-03T09:02:21.256Z,102081.20
2023-02-03T09:04:50.305Z,102077.20
2023-02-03T09:07:18.580Z,102089.20
2023-02-03T09:09:46.428Z,102087.40
2023-02-03T09:12:14.631Z,102083.00
2023-02-03T09:14:42.512Z,102076.40
2023-02-03T09:17:10.969Z,102071.60
2023-02-03T09:19:39.038Z,102073.40
2023-02-03T09:22:06.992Z,102071.00
2023-02-03T09:24:35.004Z,102075.80
2023-02-03T09:27:02.893Z,102078.40
2023-02-03T09:29:30.748Z,102078.60
2023-02-03T09:31:58.693Z,102076.20
2023-02-03T09:34:26.659Z,102083.80
2023-02-03T09:36:54.582Z,102095.20
2023-02-03T09:39:22.371Z,102111.80
2023-02-03T09:42:11.593Z,102129.80
2023-02-03T09:45:05.861Z,102143.80
2023-02-03T09:47:41.560Z,102138.00
2023-02-03T09:50:21.504Z,102148.20
2023-02-03T09:52:50.579Z,102155.20
2023-02-03T09:55:43.355Z,102154.60
2023-02-03T09:58:18.383Z,102162.60
2023-02-03T10:00:52.754Z,102170.80
2023-02-03T10:03:40.732Z,102181.00
2023-02-03T10:06:12.371Z,102182.00
2023-02-03T10:09:20.710Z,102191.00
2023-02-03T10:12:25.683Z,102200.60
2023-02-03T10:15:32.087Z,102219.40
2023-02-03T10:18:11.955Z,102209.40
2023-02-03T10:20:51.287Z,102200.80
2023-02-03T10:23:29.833Z,102206.60
2023-02-03T10:26:03.364Z,102218.20
2023-02-03T10:28:39.423Z,102213.60
2023-02-03T10:31:19.344Z,102217.80
2023-02-03T10:33:48.595Z,102230.20
2023-02-03T10:36:55.280Z,102236.00
2023-02-03T10:39:50.189Z,102247.80
2023-02-03T10:42:19.534Z,102247.20
2023-02-03T10:44:56.514Z,102256.20
2023-02-03T10:47:39.839Z,102256.00
2023-02-03T10:50:19.108Z,102255.20
2023-02-03T10:52:47.671Z,102252.00
2023-02-03T10:55:22.888Z,102248.00
2023-02-03T10:57:52.135Z,102240.80
2023-02-03T11:00:28.385Z,102239.00
2023-02-03T11:03:30.902Z,102246.80
2023-02-03T11:06:09.214Z,102242.60
2023-02-03T11:08:42.290Z,102243.00
2023-02-03T11:11:26.525Z,102244.80
2023-02-03T11:14:03.561Z,102259.00
2023-02-03T11:16:35.162Z,102261.00
2023-02-03T11:19:26.631Z,102266.60
2023-02-03T11:21:56.927Z,102264.20
2023-02-03T11:24:32.822Z,102253.20
2023-02-03T11:27:07.023Z,102243.80
2023-02-03T11:29:39.405Z,102253.20
2023-02-03T11:32:19.579Z,102244.80
2023-02-03T11:35:00.365Z,102250.40
2023-02-03T11:37:39.084Z,102248.60
2023-02-03T11:40:06.836Z,102255.80
2023-02-03T11:42:38.715Z,102249.80
2023-02-03T11:45:25.611Z,102253.40
2023-02-03T11:48:18.152Z,102256.60
2023-02-03T11:50:57.781Z,102262.40
2023-02-03T11:53:58.452Z,102264.20
2023-02-03T11:56:41.965Z,102266.00
2023-02-03T11:59:31.434Z,102262.80
2023-02-03T12:02:47.834Z,102260.00
2023-02-03T12:05:37.619Z,102251.40
2023-02-03T12:08:32.543Z,102252.40
2023-02-03T12:11:38.954Z,102250.20
2023-02-03T12:14:28.802Z,102254.60
2023-02-03T12:17:24.768Z,102256.80
2023-02-03T12:20:30.658Z,102249.20
2023-02-03T12:23:19.991Z,102245.80
2023-02-03T12:26:07.470Z,102247.40
2023-02-03T12:29:01.722Z,102246.00
2023-02-03T12:31:48.276Z,102251.80
2023-02-03T12:34:41.765Z,102247.80
2023-02-03T12:37:22.434Z,102248.80
2023-02-03T12:39:58.491Z,102252.20
2023-02-03T12:42:53.646Z,102254.40
2023-02-03T12:45:41.552Z,102254.00
2023-02-03T12:48:19.703Z,102264.80
2023-02-03T12:51:05.261Z,102262.40
2023-02-03T12:53:50.166Z,102273.60
2023-02-03T12:56:31.808Z,102264.80
2023-02-03T12:59:09.450Z,102264.80
2023-02-03T13:01:56.681Z,102271.00
2023-02-03T13:04:39.275Z,102268.20
2023-02-03T13:07:19.567Z,102271.60
2023-02-03T13:09:58.045Z,102272.00
2023-02-03T13:12:51.536Z,102265.80
2023-02-03T13:15:25.967Z,102259.20
2023-02-03T13:18:21.566Z,102262.40
2023-02-03T13:20:50.097Z,102264.60
2023-02-03T13:23:18.351Z,102268.00
2023-02-03T13:26:16.724Z,102269.00
2023-02-03T13:28:57.704Z,102260.00
2023-02-03T13:31:37.830Z,102259.60
2023-02-03T13:34:11.456Z,102255.40
2023-02-03T13:37:39.304Z,102254.20
2023-02-03T13:40:31.760Z,102252.80
2023-02-03T13:43:10.419Z,102243.80
2023-02-03T13:45:49.415Z,102245.00
2023-02-03T13:48:28.911Z,102244.40
2023-02-03T13:51:07.815Z,102246.40
2023-02-03T13:53:41.294Z,102258.00
2023-02-03T13:56:23.838Z,102257.80
2023-02-03T13:59:13.900Z,102249.60
2023-02-03T14:01:43.551Z,102246.80
2023-02-03T14:04:23.544Z,102243.80
2023-02-03T14:06:53.810Z,102247.40
2023-02-03T14:09:30.400Z,102248.40
2023-02-03T14:12:35.800Z,102245.40
2023-02-03T14:15:33.641Z,102251.00
2023-02-03T14:18:01.623Z,102252.80
2023-02-03T14:20:29.444Z,102258.00
2023-02-03T14:23:07.235Z,102262.40
2023-02-03T14:25:43.903Z,102258.20
2023-02-03T14:28:17.826Z,102263.60
2023-02-03T14:31:10.467Z,102259.00
2023-02-03T14:33:55.842Z,102264.40
2023-02-03T14:36:54.693Z,102258.00
2023-02-03T14:39:55.251Z,102259.20
2023-02-03T14:43:10.207Z,102274.20
2023-02-03T14:46:13.737Z,102263.80
2023-02-03T14:49:03.103Z,102265.40
2023-02-03T14:52:32.515Z,102263.20
2023-02-03T14:55:00.265Z,102262.20
2023-02-03T14:57:43.481Z,102264.60
2023-02-03T15:00:20.376Z,102270.20
2023-02-03T15:03:07.570Z,102267.60
2023-02-03T15:05:48.826Z,102270.00
2023-02-03T15:08:44.365Z,102273.80
2023-02-03T15:11:27.640Z,102281.60
2023-02-03T15:14:19.192Z,102282.60
2023-02-03T15:16:55.972Z,102283.40
2023-02-03T15:19:29.288Z,102282.20
2023-02-03T15:21:57.183Z,102281.60
2023-02-03T15:24:25.914Z,102282.20
2023-02-03T15:26:56.509Z,102286.40
2023-02-03T15:29:27.903Z,102286.60
2023-02-03T15:32:07.989Z,102296.80
2023-02-03T15:34:47.388Z,102300.40
2023-02-03T15:37:50.366Z,102303.60
2023-02-03T15:40:23.357Z,102303.80
2023-02-03T15:43:21.846Z,102307.40
2023-02-03T15:46:28.389Z,102302.80
2023-02-03T15:49:08.720Z,102303.20
2023-02-03T15:51:46.218Z,102304.20
2023-02-03T15:54:24.821Z,102306.20
2023-02-03T15:57:21.994Z,102313.60
2023-02-03T16:00:04.335Z,102315.20
2023-02-03T16:02:46.230Z,102316.60
2023-02-03T16:05:37.177Z,102319.80
2023-02-03T16:08:40.454Z,102319.20
2023-02-03T16:11:39.680Z,102324.00
2023-02-03T16:14:12.046Z,102325.40
2023-02-03T16:16:55.220Z,102328.20
2023-02-03T16:19:38.390Z,102335.40
2023-02-03T16:22:31.652Z,102340.00
2023-02-03T16:25:17.756Z,102338.20
2023-02-03T16:28:13.480Z,102343.40
2023-02-03T16:31:17.950Z,102342.80
2023-02-03T16:34:08.926Z,102348.80
2023-02-03T16:37:02.397Z,102358.60
2023-02-03T16:39:49.216Z,102364.00
2023-02-03T16:42:38.861Z,102366.00
2023-02-03T16:45:36.913Z,102366.80
2023-02-03T16:48:24.213Z,102371.00
2023-02-03T16:50:58.187Z,102373.20
2023-02-03T16:53:30.918Z,102376.60
2023-02-03T16:56:04.687Z,102376.00
2023-02-03T16:58:32.749Z,102381.60
2023-02-03T17:01:03.871Z,102388.40
2023-02-03T17:03:35.890Z,102390.20
2023-02-03T17:06:08.859Z,102394.40
2023-02-03T17:08:38.897Z,102386.60
2023-02-03T17:11:15.456Z,102389.40
2023-02-03T17:13:43.906Z,102394.80
2023-02-03T17:16:17.377Z,102395.80
2023-02-03T17:18:46.459Z,102404.00
2023-02-03T17:21:20.844Z,102404.20
2023-02-03T17:23:49.196Z,102400.80
2023-02-03T17:26:17.563Z,102408.00
2023-02-03T17:28:45.472Z,102418.20
2023-02-03T17:31:18.350Z,102419.40
2023-02-03T17:33:50.569Z,102427.00
2023-02-03T17:36:21.817Z,102424.40
2023-02-03T17:55:27.923Z,102432.20
2023-02-03T17:57:56.122Z,102432.80
2023-02-03T18:00:24.043Z,102433.60
2023-02-03T18:02:52.449Z,102438.40
2023-02-03T18:05:21.176Z,102440.60
2023-02-03T18:10:22.104Z,102436.60
2023-02-03T18:12:50.296Z,102443.60
2023-02-03T18:15:18.438Z,102436.20
2023-02-03T18:17:46.264Z,102443.20
2023-02-03T18:20:14.412Z,102440.40
2023-02-03T18:22:44.252Z,102446.80
2023-02-03T18:25:12.747Z,102447.40
2023-02-03T18:27:40.639Z,102452.80
2023-02-03T18:30:11.639Z,102452.80
2023-02-03T18:32:39.566Z,102459.40
2023-02-03T18:35:12.953Z,102459.40
2023-02-03T18:37:40.839Z,102462.60
2023-02-03T18:40:09.398Z,102458.20
2023-02-03T18:42:37.285Z,102457.20
2023-02-03T18:45:06.443Z,102461.20
2023-02-03T18:47:35.317Z,102463.80
2023-02-03T18:50:04.993Z,102464.20
2023-02-03T18:52:32.862Z,102467.80
2023-02-03T18:55:00.689Z,102473.40
2023-02-03T18:57:28.794Z,102473.40
2023-02-03T18:59:56.812Z,102472.00
2023-02-03T19:02:25.782Z,102474.40
2023-02-03T19:04:53.748Z,102478.80
2023-02-03T19:07:21.591Z,102473.00
2023-02-03T19:09:49.537Z,102478.60
2023-02-03T19:12:17.353Z,102475.20
2023-02-03T19:14:45.170Z,102475.80
2023-02-03T19:17:12.975Z,102475.60
2023-02-03T19:19:40.783Z,102475.60
2023-02-03T19:22:08.654Z,102475.40
2023-02-03T19:24:36.767Z,102479.80
2023-02-03T19:27:04.806Z,102481.20
2023-02-03T19:29:32.958Z,102480.60
2023-02-03T19:32:00.866Z,102477.60
2023-02-03T19:34:28.731Z,102480.80
2023-02-03T19:36:59.097Z,102480.40
2023-02-03T19:39:27.004Z,102480.20
2023-02-03T19:41:54.889Z,102479.20
2023-02-03T19:44:22.677Z,102477.60
2023-02-03T19:46:50.793Z,102480.40
2023-02-03T19:49:19.507Z,102482.60
2023-02-03T19:51:47.715Z,102485.60
2023-02-03T19:54:16.794Z,102484.60
2023-02-03T19:56:45.057Z,102488.20
2023-02-03T19:59:13.000Z,102493.60
2023-02-03T20:01:40.885Z,102492.20
2023-02-03T20:04:08.793Z,102494.20
2023-02-03T20:06:36.722Z,102499.20
2023-02-03T20:09:06.232Z,102493.40
2023-02-03T20:11:34.243Z,102497.00
2023-02-03T20:14:02.108Z,102495.20
2023-02-03T20:16:30.002Z,102495.00
2023-02-03T20:19:00.643Z,102496.80
2023-02-03T20:21:28.625Z,102496.80
2023-02-03T20:23:56.705Z,102492.80
2023-02-03T20:26:24.587Z,102491.40
2023-02-03T20:28:52.438Z,102498.00
2023-02-03T20:31:21.401Z,102491.80
2023-02-03T20:33:49.587Z,102494.00
2023-02-03T20:36:17.402Z,102492.60
2023-02-03T20:38:45.844Z,102495.80
2023-02-03T20:41:13.795Z,102495.00
2023-02-03T20:43:41.704Z,102499.00
2023-02-03T20:46:13.518Z,102499.40
2023-02-03T20:48:41.788Z,102504.40
2023-02-03T20:51:15.425Z,102514.60
2023-02-03T20:53:47.966Z,102517.60
2023-02-03T20:56:21.367Z,102524.60
2023-02-03T20:58:49.379Z,102523.80
2023-02-03T21:01:22.545Z,102524.00
2023-02-03T21:04:10.191Z,102526.20
2023-02-03T21:06:39.847Z,102524.40
2023-02-03T21:09:17.646Z,102527.60
2023-02-03T21:11:45.715Z,102532.00
2023-02-03T21:14:29.087Z,102541.80
2023-02-03T21:16:56.916Z,102542.00
2023-02-03T21:19:32.788Z,102541.80
2023-02-03T21:22:18.113Z,102551.40
2023-02-03T21:25:00.621Z,102551.00
2023-02-03T21:27:34.599Z,102553.40
2023-02-03T21:30:28.418Z,102556.20
2023-02-03T21:32:58.437Z,102552.40
2023-02-03T21:35:33.795Z,102555.00
2023-02-03T21:38:16.803Z,102561.60
2023-02-03T21:40:44.592Z,102557.80
2023-02-03T21:43:18.097Z,102555.40
2023-02-03T21:45:45.956Z,102557.80
2023-02-03T21:48:32.497Z,102562.00
2023-02-03T21:51:21.089Z,102564.00
2023-02-03T21:54:03.699Z,102567.00
2023-02-03T21:56:39.998Z,102565.00
2023-02-03T21:59:42.305Z,102565.80
2023-02-03T22:02:56.682Z,102564.60
2023-02-03T22:05:24.807Z,102569.60
2023-02-03T22:07:53.026Z,102576.00
2023-02-03T22:10:20.908Z,102580.80
2023-02-03T22:12:49.143Z,102580.80
2023-02-03T22:15:17.393Z,102581.80
2023-02-03T22:17:48.203Z,102589.80
2023-02-03T22:20:16.231Z,102592.20
2023-02-03T22:22:44.191Z,102593.60
2023-02-03T22:25:12.129Z,102600.20
2023-02-03T22:27:40.009Z,102592.20
2023-02-03T22:30:13.781Z,102603.00
2023-02-03T22:32:42.104Z,102592.60
2023-02-03T22:35:10.777Z,102591.40
2023-02-03T22:37:38.636Z,102602.00
2023-02-03T22:40:07.054Z,102597.80
2023-02-03T22:42:35.322Z,102596.80
2023-02-03T22:45:03.920Z,102604.20
2023-02-03T22:47:31.913Z,102608.20
2023-02-03T22:49:59.830Z,102612.80
2023-02-03T22:52:27.780Z,102612.60
2023-02-03T22:54:55.601Z,102617.40
2023-02-03T22:57:24.297Z,102625.40
2023-02-03T22:59:52.155Z,102622.20
2023-02-03T23:02:19.991Z,102631.40
2023-02-03T23:04:47.986Z,102634.00
2023-02-03T23:07:16.237Z,102636.80
2023-02-03T23:09:44.083Z,102635.20
2023-02-03T23:12:11.984Z,102644.00
2023-02-03T23:14:39.793Z,102640.60
2023-02-03T23:17:08.046Z,102631.00
2023-02-03T23:19:35.913Z,102635.20
2023-02-03T23:22:03.730Z,102638.00
2023-02-03T23:24:31.697Z,102637.60
2023-02-03T23:26:59.673Z,102640.20
2023-02-03T23:29:27.749Z,102630.40
2023-02-03T23:31:55.825Z,102629.60
2023-02-03T23:34:42.504Z,102634.60
2023-02-03T23:37:10.756Z,102633.00
2023-02-03T23:39:38.595Z,102630.80
2023-02-03T23:42:06.642Z,102636.20
2023-02-03T23:44:34.696Z,102641.20
2023-02-03T23:47:03.309Z,102645.40
2023-02-03T23:49:31.479Z,102646.80
2023-02-03T23:52:00.048Z,102653.40
2023-02-03T23:54:28.143Z,102648.60
2023-02-03T23:56:56.288Z,102657.60
2023-02-03T23:59:24.313Z,102652.60
